Portada
METAR-TAF:

METAR-TAF

Aeroports :

Madrid-Cuatro Vientos, Espanya

latitud: 40-23N, longitud: 003-47W, altitud: 690 m

Observació

L'informe es va fer fa 6 hores i 39 minuts, a les 05:00 UTC
Vent calma
Temperatura 21°C
Humitat 49%
Pressió 1019 hPa
Visibilitat 10 km o més
sense núvols per sota de 1500 mi sense presència de cumulonimbus.

METAR: LEVS 210500Z 00000KT CAVOK 21/10 Q1019

Hora: 13:39 (11:39 UTC)

Pronòstic

L'informe es va fer fa 6 hores i 39 minuts, a les 05:00 UTC
Pronòstic vàlid del 21 a les 06 UTC al 21 a les 15 UTC
Vent 4 kt amb direcció variable
Visibilitat 10 km o més
sense núvols per sota de 1500 mi sense presència de cumulonimbus.

TAF: LEVS 210500Z 2106/2115 VRB04KT CAVOK

Observacions i pronòstics meteorològics de més de 4000 aeroports (METAR i TAF).

Les estacions disponibles són els punts grocs i vermells al mapa.

Posi el ratolí al punt desitjat per veure el nom de l'estació.

Feu clic per veure les observacions i els pronòstics meteorològics.

Per canviar el mapa: feu clic els botons verds amb una creu de color negre per apropar; al botó verd amb un guió per allunyar la imatge; o en les fletxes verdes per a mapes adjacents.


METAR-TAF: